sensor_id;sensor_type;location;lat;lon;timestamp;temperature;humidity
35244;DHT22;37916;52.160;21.066;2022-07-17T00:03:25;14.20;77.40
35244;DHT22;37916;52.160;21.066;2022-07-17T00:13:26;14.20;77.40
35244;DHT22;37916;52.160;21.066;2022-07-17T00:23:27;14.30;77.50
35244;DHT22;37916;52.160;21.066;2022-07-17T00:33:28;14.20;77.60
35244;DHT22;37916;52.160;21.066;2022-07-17T00:43:29;14.30;77.20
35244;DHT22;37916;52.160;21.066;2022-07-17T00:53:32;14.30;77.40
35244;DHT22;37916;52.160;21.066;2022-07-17T01:03:34;14.30;77.20
35244;DHT22;37916;52.160;21.066;2022-07-17T01:13:34;14.00;78.00
35244;DHT22;37916;52.160;21.066;2022-07-17T01:23:35;13.70;78.90
35244;DHT22;37916;52.160;21.066;2022-07-17T01:33:36;13.70;78.50
35244;DHT22;37916;52.160;21.066;2022-07-17T01:43:37;13.40;79.20
35244;DHT22;37916;52.160;21.066;2022-07-17T01:53:41;13.10;80.60
35244;DHT22;37916;52.160;21.066;2022-07-17T02:03:41;12.90;80.70
35244;DHT22;37916;52.160;21.066;2022-07-17T02:13:42;13.10;80.30
35244;DHT22;37916;52.160;21.066;2022-07-17T02:23:43;13.10;80.60
35244;DHT22;37916;52.160;21.066;2022-07-17T02:33:43;13.20;80.70
35244;DHT22;37916;52.160;21.066;2022-07-17T02:43:44;13.40;80.10
35244;DHT22;37916;52.160;21.066;2022-07-17T02:53:44;13.30;79.80
35244;DHT22;37916;52.160;21.066;2022-07-17T03:03:45;13.10;80.60
35244;DHT22;37916;52.160;21.066;2022-07-17T03:13:46;13.20;80.80
35244;DHT22;37916;52.160;21.066;2022-07-17T03:23:47;13.30;80.60
35244;DHT22;37916;52.160;21.066;2022-07-17T03:33:47;13.60;80.30
35244;DHT22;37916;52.160;21.066;2022-07-17T03:43:48;13.90;79.60
35244;DHT22;37916;52.160;21.066;2022-07-17T03:53:51;14.10;78.80
35244;DHT22;37916;52.160;21.066;2022-07-17T04:03:51;14.50;78.10
35244;DHT22;37916;52.160;21.066;2022-07-17T04:13:52;14.80;77.40
35244;DHT22;37916;52.160;21.066;2022-07-17T04:23:52;14.80;77.70
35244;DHT22;37916;52.160;21.066;2022-07-17T04:33:53;14.90;77.20
35244;DHT22;37916;52.160;21.066;2022-07-17T04:43:54;15.40;76.00
35244;DHT22;37916;52.160;21.066;2022-07-17T04:53:55;16.10;74.20
35244;DHT22;37916;52.160;21.066;2022-07-17T05:03:56;16.20;73.70
35244;DHT22;37916;52.160;21.066;2022-07-17T05:13:57;16.90;71.90
35244;DHT22;37916;52.160;21.066;2022-07-17T05:23:58;17.20;71.20
35244;DHT22;37916;52.160;21.066;2022-07-17T05:33:59;18.40;68.00
35244;DHT22;37916;52.160;21.066;2022-07-17T05:44:02;19.80;65.20
35244;DHT22;37916;52.160;21.066;2022-07-17T05:54:03;21.60;61.50
35244;DHT22;37916;52.160;21.066;2022-07-17T06:04:03;21.80;59.90
35244;DHT22;37916;52.160;21.066;2022-07-17T06:14:04;22.90;57.80
35244;DHT22;37916;52.160;21.066;2022-07-17T06:24:07;23.50;55.00
35244;DHT22;37916;52.160;21.066;2022-07-17T06:34:08;24.50;52.50
35244;DHT22;37916;52.160;21.066;2022-07-17T06:44:09;25.20;50.20
35244;DHT22;37916;52.160;21.066;2022-07-17T06:54:09;25.50;50.00
35244;DHT22;37916;52.160;21.066;2022-07-17T07:04:11;26.40;48.20
35244;DHT22;37916;52.160;21.066;2022-07-17T07:14:11;26.90;46.80
35244;DHT22;37916;52.160;21.066;2022-07-17T07:24:12;27.70;44.90
35244;DHT22;37916;52.160;21.066;2022-07-17T07:34:14;27.30;45.30
35244;DHT22;37916;52.160;21.066;2022-07-17T07:44:17;26.80;45.90
35244;DHT22;37916;52.160;21.066;2022-07-17T07:54:18;26.00;46.90
35244;DHT22;37916;52.160;21.066;2022-07-17T08:04:19;26.50;46.20
35244;DHT22;37916;52.160;21.066;2022-07-17T08:14:19;26.20;47.00
35244;DHT22;37916;52.160;21.066;2022-07-17T08:24:22;26.80;46.30
35244;DHT22;37916;52.160;21.066;2022-07-17T08:34:23;27.30;45.10
35244;DHT22;37916;52.160;21.066;2022-07-17T08:44:23;27.80;45.40
35244;DHT22;37916;52.160;21.066;2022-07-17T08:54:27;28.90;43.80
35244;DHT22;37916;52.160;21.066;2022-07-17T09:04:32;28.20;43.20
35244;DHT22;37916;52.160;21.066;2022-07-17T09:14:38;27.60;43.00
35244;DHT22;37916;52.160;21.066;2022-07-17T09:34:51;26.70;43.20
35244;DHT22;37916;52.160;21.066;2022-07-17T09:45:01;27.40;41.50
35244;DHT22;37916;52.160;21.066;2022-07-17T09:55:05;26.70;41.50
35244;DHT22;37916;52.160;21.066;2022-07-17T10:05:07;26.40;41.30
35244;DHT22;37916;52.160;21.066;2022-07-17T10:15:11;25.80;43.40
35244;DHT22;37916;52.160;21.066;2022-07-17T10:25:14;25.50;42.50
35244;DHT22;37916;52.160;21.066;2022-07-17T10:35:15;24.70;44.10
35244;DHT22;37916;52.160;21.066;2022-07-17T10:45:27;25.00;43.20
35244;DHT22;37916;52.160;21.066;2022-07-17T10:55:29;24.60;43.00
35244;DHT22;37916;52.160;21.066;2022-07-17T11:05:30;25.40;41.60
35244;DHT22;37916;52.160;21.066;2022-07-17T11:15:30;25.00;41.80
35244;DHT22;37916;52.160;21.066;2022-07-17T11:25:50;25.10;41.60
35244;DHT22;37916;52.160;21.066;2022-07-17T11:35:51;25.10;42.20
35244;DHT22;37916;52.160;21.066;2022-07-17T11:45:52;24.90;42.00
35244;DHT22;37916;52.160;21.066;2022-07-17T11:55:52;23.80;43.50
35244;DHT22;37916;52.160;21.066;2022-07-17T12:05:56;24.10;43.30
35244;DHT22;37916;52.160;21.066;2022-07-17T12:15:56;23.80;42.60
35244;DHT22;37916;52.160;21.066;2022-07-17T12:26:15;23.70;43.00
35244;DHT22;37916;52.160;21.066;2022-07-17T12:36:17;23.70;42.80
35244;DHT22;37916;52.160;21.066;2022-07-17T12:46:18;23.00;44.10
35244;DHT22;37916;52.160;21.066;2022-07-17T12:56:19;23.10;42.50
35244;DHT22;37916;52.160;21.066;2022-07-17T13:06:22;23.20;40.40
35244;DHT22;37916;52.160;21.066;2022-07-17T13:16:23;23.20;41.00
35244;DHT22;37916;52.160;21.066;2022-07-17T13:26:24;23.10;41.60
35244;DHT22;37916;52.160;21.066;2022-07-17T13:36:24;22.40;40.80
35244;DHT22;37916;52.160;21.066;2022-07-17T13:46:25;22.90;41.50
35244;DHT22;37916;52.160;21.066;2022-07-17T13:56:26;24.30;39.10
35244;DHT22;37916;52.160;21.066;2022-07-17T14:06:27;25.20;38.40
35244;DHT22;37916;52.160;21.066;2022-07-17T14:16:27;24.40;38.30
35244;DHT22;37916;52.160;21.066;2022-07-17T14:26:28;23.80;38.90
35244;DHT22;37916;52.160;21.066;2022-07-17T14:36:30;24.10;37.80
35244;DHT22;37916;52.160;21.066;2022-07-17T14:46:30;24.60;37.20
35244;DHT22;37916;52.160;21.066;2022-07-17T14:56:31;24.50;37.60
35244;DHT22;37916;52.160;21.066;2022-07-17T15:06:32;24.20;37.90
35244;DHT22;37916;52.160;21.066;2022-07-17T15:16:32;24.60;38.00
35244;DHT22;37916;52.160;21.066;2022-07-17T15:26:33;23.90;38.30
35244;DHT22;37916;52.160;21.066;2022-07-17T15:36:46;23.90;38.20
35244;DHT22;37916;52.160;21.066;2022-07-17T15:46:49;24.20;38.00
35244;DHT22;37916;52.160;21.066;2022-07-17T15:56:50;23.70;37.80
35244;DHT22;37916;52.160;21.066;2022-07-17T16:06:51;23.40;38.60
35244;DHT22;37916;52.160;21.066;2022-07-17T16:16:51;23.20;38.90
35244;DHT22;37916;52.160;21.066;2022-07-17T16:26:52;23.00;39.80
35244;DHT22;37916;52.160;21.066;2022-07-17T16:36:53;22.70;41.00
35244;DHT22;37916;52.160;21.066;2022-07-17T16:46:55;22.40;41.50
35244;DHT22;37916;52.160;21.066;2022-07-17T16:57:01;22.30;42.20
35244;DHT22;37916;52.160;21.066;2022-07-17T17:07:04;22.60;42.00
35244;DHT22;37916;52.160;21.066;2022-07-17T17:17:05;22.70;41.90
35244;DHT22;37916;52.160;21.066;2022-07-17T17:27:06;22.00;42.20
35244;DHT22;37916;52.160;21.066;2022-07-17T17:47:17;21.80;42.80
35244;DHT22;37916;52.160;21.066;2022-07-17T17:57:20;21.80;43.30
35244;DHT22;37916;52.160;21.066;2022-07-17T18:07:21;21.80;43.60
35244;DHT22;37916;52.160;21.066;2022-07-17T18:17:21;21.50;44.00
35244;DHT22;37916;52.160;21.066;2022-07-17T18:27:22;21.40;44.20
35244;DHT22;37916;52.160;21.066;2022-07-17T18:37:26;21.40;44.20
35244;DHT22;37916;52.160;21.066;2022-07-17T18:47:50;21.20;45.00
35244;DHT22;37916;52.160;21.066;2022-07-17T18:58:40;20.60;46.80
35244;DHT22;37916;52.160;21.066;2022-07-17T19:08:41;20.20;47.20
35244;DHT22;37916;52.160;21.066;2022-07-17T19:18:42;20.00;47.90
35244;DHT22;37916;52.160;21.066;2022-07-17T19:28:42;19.70;49.00
35244;DHT22;37916;52.160;21.066;2022-07-17T19:38:43;19.20;50.00
35244;DHT22;37916;52.160;21.066;2022-07-17T19:48:45;18.90;51.30
35244;DHT22;37916;52.160;21.066;2022-07-17T19:58:48;18.50;52.20
35244;DHT22;37916;52.160;21.066;2022-07-17T20:08:49;18.20;53.20
35244;DHT22;37916;52.160;21.066;2022-07-17T20:18:50;18.00;54.00
35244;DHT22;37916;52.160;21.066;2022-07-17T20:28:54;17.90;55.90
35244;DHT22;37916;52.160;21.066;2022-07-17T20:38:55;17.90;54.70
35244;DHT22;37916;52.160;21.066;2022-07-17T20:48:56;17.60;56.00
35244;DHT22;37916;52.160;21.066;2022-07-17T20:58:56;17.30;57.20
35244;DHT22;37916;52.160;21.066;2022-07-17T21:08:58;17.10;58.50
35244;DHT22;37916;52.160;21.066;2022-07-17T21:18:59;16.90;58.70
35244;DHT22;37916;52.160;21.066;2022-07-17T21:28:59;16.70;59.50
35244;DHT22;37916;52.160;21.066;2022-07-17T21:39:00;16.50;59.60
35244;DHT22;37916;52.160;21.066;2022-07-17T21:49:01;16.30;60.80
35244;DHT22;37916;52.160;21.066;2022-07-17T21:59:01;16.00;61.70
35244;DHT22;37916;52.160;21.066;2022-07-17T22:09:02;15.80;62.40
35244;DHT22;37916;52.160;21.066;2022-07-17T22:19:09;15.70;62.90
35244;DHT22;37916;52.160;21.066;2022-07-17T22:29:10;15.80;62.40
35244;DHT22;37916;52.160;21.066;2022-07-17T22:39:11;15.60;63.40
35244;DHT22;37916;52.160;21.066;2022-07-17T22:49:11;15.50;63.40
35244;DHT22;37916;52.160;21.066;2022-07-17T22:59:13;15.30;64.00
35244;DHT22;37916;52.160;21.066;2022-07-17T23:09:14;15.20;64.50
35244;DHT22;37916;52.160;21.066;2022-07-17T23:19:15;15.10;65.50
35244;DHT22;37916;52.160;21.066;2022-07-17T23:29:15;15.00;65.70
35244;DHT22;37916;52.160;21.066;2022-07-17T23:39:16;14.90;66.30
35244;DHT22;37916;52.160;21.066;2022-07-17T23:49:16;14.70;65.90
35244;DHT22;37916;52.160;21.066;2022-07-17T23:59:17;14.60;66.60
